createdAt,value
2023-04-22T00:02:01.889Z,3.63
2023-04-22T00:04:36.544Z,9.60
2023-04-22T00:09:49.107Z,3.70
2023-04-22T00:12:18.778Z,5.43
2023-04-22T00:14:49.923Z,5.10
2023-04-22T00:17:20.792Z,9.77
2023-04-22T00:19:59.176Z,8.70
2023-04-22T00:22:31.388Z,4.30
2023-04-22T00:25:03.586Z,3.20
2023-04-22T00:27:33.624Z,11.03
2023-04-22T00:30:04.513Z,3.03
2023-04-22T00:32:37.560Z,3.70
2023-04-22T00:35:09.208Z,6.00
2023-04-22T00:37:38.362Z,10.03
2023-04-22T00:40:12.349Z,3.77
2023-04-22T00:42:44.596Z,4.13
2023-04-22T00:45:15.385Z,6.40
2023-04-22T00:50:51.800Z,5.90
2023-04-22T00:53:22.940Z,7.07
2023-04-22T00:55:58.198Z,8.07
2023-04-22T00:58:28.834Z,3.33
2023-04-22T01:01:08.561Z,4.77
2023-04-22T01:03:47.309Z,6.57
2023-04-22T01:06:32.073Z,8.50
2023-04-22T01:12:11.979Z,3.40
2023-04-22T01:14:45.250Z,5.83
2023-04-22T01:17:40.134Z,3.77
2023-04-22T01:26:49.379Z,7.63
2023-04-22T01:29:55.309Z,5.87
2023-04-22T01:32:43.260Z,7.03
2023-04-22T01:40:59.190Z,5.43
2023-04-22T01:53:24.529Z,13.43
2023-04-22T01:56:10.720Z,10.40
2023-04-22T01:59:14.275Z,6.97
2023-04-22T02:02:03.704Z,6.50
2023-04-22T02:13:24.861Z,9.77
2023-04-22T02:24:49.153Z,5.27
2023-04-22T02:27:21.282Z,9.17
2023-04-22T02:30:04.228Z,7.50
2023-04-22T02:41:42.555Z,9.60
2023-04-22T02:44:31.148Z,8.07
2023-04-22T02:47:18.934Z,9.83
2023-04-22T02:52:49.756Z,6.63
2023-04-22T02:58:16.571Z,6.37
2023-04-22T03:01:04.455Z,7.53
2023-04-22T03:03:48.379Z,14.40
2023-04-22T03:06:19.169Z,5.50
2023-04-22T03:09:05.037Z,9.20
2023-04-22T03:11:54.901Z,15.13
2023-04-22T03:14:27.602Z,5.73
2023-04-22T03:17:12.885Z,6.20
2023-04-22T03:19:44.842Z,3.90
2023-04-22T03:22:27.826Z,8.90
2023-04-22T03:25:03.552Z,4.43
2023-04-22T03:28:01.406Z,6.40
2023-04-22T03:30:37.828Z,6.50
2023-04-22T03:33:16.334Z,8.80
2023-04-22T03:35:56.218Z,8.27
2023-04-22T03:38:29.116Z,5.33
2023-04-22T03:44:02.722Z,8.20
2023-04-22T03:49:32.622Z,5.43
2023-04-22T03:55:09.847Z,4.13
2023-04-22T03:57:46.659Z,6.20
2023-04-22T04:03:32.169Z,6.10
2023-04-22T04:06:04.459Z,6.30
2023-04-22T04:08:38.852Z,5.60
2023-04-22T04:11:11.922Z,7.27
2023-04-22T04:13:47.582Z,4.37
2023-04-22T04:16:27.434Z,4.43
2023-04-22T04:21:55.228Z,7.67
2023-04-22T04:24:30.147Z,7.40
2023-04-22T04:27:02.827Z,8.53
2023-04-22T04:29:34.948Z,5.77
2023-04-22T04:32:09.161Z,10.63
2023-04-22T04:34:39.317Z,4.93
2023-04-22T04:37:14.321Z,5.77
2023-04-22T04:40:01.071Z,7.17
2023-04-22T04:42:31.755Z,13.10
2023-04-22T04:45:05.867Z,4.40
2023-04-22T04:47:39.136Z,8.33
2023-04-22T04:50:11.458Z,8.73
2023-04-22T04:52:58.195Z,4.77
2023-04-22T04:55:31.068Z,5.10
2023-04-22T04:58:00.556Z,4.93
2023-04-22T05:00:34.378Z,4.40
2023-04-22T05:03:17.448Z,5.27
2023-04-22T05:08:48.110Z,5.07
2023-04-22T05:11:18.975Z,4.80
2023-04-22T05:13:51.759Z,5.27
2023-04-22T05:16:36.225Z,6.23
2023-04-22T05:19:14.195Z,6.10
2023-04-22T05:21:49.660Z,5.97
2023-04-22T05:24:24.333Z,4.47
2023-04-22T05:26:57.297Z,8.90
2023-04-22T05:29:27.745Z,9.53
2023-04-22T05:32:11.156Z,4.87
2023-04-22T05:34:54.901Z,7.40
2023-04-22T05:37:27.341Z,3.30
2023-04-22T05:40:04.578Z,7.80
2023-04-22T05:42:34.712Z,4.90
2023-04-22T05:45:06.280Z,6.10
2023-04-22T05:47:35.619Z,4.43
2023-04-22T05:50:05.084Z,7.30
2023-04-22T05:52:34.520Z,4.63
2023-04-22T05:55:06.476Z,3.33
2023-04-22T05:57:35.501Z,5.13
2023-04-22T06:00:05.789Z,5.40
2023-04-22T06:02:35.160Z,5.90
2023-04-22T06:05:05.351Z,5.77
2023-04-22T06:07:35.224Z,7.90
2023-04-22T06:10:05.929Z,11.97
2023-04-22T06:12:36.114Z,7.90
2023-04-22T06:15:05.922Z,8.00
2023-04-22T06:17:35.680Z,6.97
2023-04-22T06:20:04.930Z,5.00
2023-04-22T06:22:33.951Z,10.60
2023-04-22T06:25:03.452Z,5.57
2023-04-22T06:27:35.930Z,5.37
2023-04-22T06:30:06.453Z,4.93
2023-04-22T06:32:36.106Z,5.53
2023-04-22T06:35:06.228Z,5.57
2023-04-22T06:37:37.219Z,5.80
2023-04-22T06:40:06.704Z,6.97
2023-04-22T06:42:39.626Z,6.17
2023-04-22T06:45:13.514Z,7.20
2023-04-22T06:47:45.013Z,5.67
2023-04-22T06:50:14.120Z,3.70
2023-04-22T06:52:43.950Z,5.50
2023-04-22T06:55:13.446Z,7.17
2023-04-22T06:57:50.278Z,4.27
2023-04-22T07:00:19.848Z,3.60
2023-04-22T07:02:49.170Z,4.83
2023-04-22T07:05:18.424Z,1.77
2023-04-22T07:07:47.743Z,7.73
2023-04-22T07:10:16.642Z,2.73
2023-04-22T07:12:47.243Z,9.93
2023-04-22T07:15:17.377Z,1.73
2023-04-22T07:17:46.322Z,1.10
2023-04-22T07:20:16.099Z,2.77
2023-04-22T07:22:45.084Z,0.93
2023-04-22T07:25:14.473Z,0.97
2023-04-22T07:27:44.079Z,3.50
2023-04-22T07:30:15.064Z,1.03
2023-04-22T07:32:44.294Z,1.23
2023-04-22T07:35:14.111Z,1.33
2023-04-22T07:37:43.301Z,1.13
2023-04-22T07:40:21.989Z,0.80
2023-04-22T07:42:51.181Z,2.63
2023-04-22T07:45:23.450Z,1.80
2023-04-22T07:47:52.910Z,1.50
2023-04-22T07:50:22.195Z,2.10
2023-04-22T07:52:51.548Z,1.27
2023-04-22T07:55:22.631Z,1.20
2023-04-22T07:57:54.534Z,1.17
2023-04-22T08:00:25.265Z,1.50
2023-04-22T08:02:55.114Z,0.93
2023-04-22T08:05:24.382Z,0.63
2023-04-22T08:07:54.965Z,1.00
2023-04-22T08:10:28.463Z,1.10
2023-04-22T08:12:57.752Z,2.40
2023-04-22T08:15:28.916Z,1.13
2023-04-22T08:17:58.475Z,1.27
2023-04-22T08:20:28.003Z,1.27
2023-04-22T08:23:00.724Z,1.23
2023-04-22T08:25:30.819Z,1.13
2023-04-22T08:28:02.849Z,0.80
2023-04-22T08:30:33.501Z,0.80
2023-04-22T08:33:02.843Z,2.00
2023-04-22T08:35:33.294Z,1.47
2023-04-22T08:38:02.497Z,0.53
2023-04-22T08:40:32.279Z,0.80
2023-04-22T08:43:01.434Z,1.53
2023-04-22T08:45:31.197Z,0.87
2023-04-22T08:48:02.260Z,2.53
2023-04-22T08:50:34.226Z,1.27
2023-04-22T08:53:03.060Z,2.80
2023-04-22T08:55:32.954Z,1.33
2023-04-22T08:58:07.532Z,1.10
2023-04-22T09:00:39.399Z,0.83
2023-04-22T09:03:10.867Z,2.80
2023-04-22T09:05:42.293Z,0.77
2023-04-22T09:08:13.184Z,1.30
2023-04-22T09:10:42.210Z,1.40
2023-04-22T09:13:12.402Z,5.90
2023-04-22T09:15:43.121Z,0.80
2023-04-22T09:18:13.933Z,1.50
2023-04-22T09:20:44.436Z,1.10
2023-04-22T09:23:16.388Z,0.70
2023-04-22T09:25:49.420Z,1.53
2023-04-22T09:28:21.804Z,1.00
2023-04-22T09:31:01.579Z,3.60
2023-04-22T09:36:30.176Z,1.13
2023-04-22T09:39:06.621Z,1.13
2023-04-22T09:41:36.738Z,1.00
2023-04-22T09:44:06.446Z,1.43
2023-04-22T09:46:43.666Z,1.00
2023-04-22T09:49:21.632Z,0.93
2023-04-22T09:54:43.161Z,1.20
2023-04-22T09:57:15.855Z,1.73
2023-04-22T09:59:45.762Z,1.73
2023-04-22T10:02:19.452Z,5.37
2023-04-22T10:04:53.953Z,2.03
2023-04-22T10:07:31.935Z,2.17
2023-04-22T10:10:04.235Z,1.50
2023-04-22T10:12:37.717Z,0.87
2023-04-22T10:15:15.451Z,2.20
2023-04-22T10:17:56.892Z,1.70
2023-04-22T10:20:30.055Z,3.00
2023-04-22T10:23:09.937Z,2.23
2023-04-22T10:25:46.060Z,0.80
2023-04-22T10:28:21.922Z,1.40
2023-04-22T10:30:55.747Z,1.00
2023-04-22T10:33:50.472Z,2.00
2023-04-22T10:36:22.904Z,1.23
2023-04-22T10:39:20.606Z,2.50
2023-04-22T10:42:03.189Z,1.50
2023-04-22T10:44:56.279Z,1.53
2023-04-22T10:47:51.771Z,1.40
2023-04-22T10:50:31.612Z,1.80
2023-04-22T10:53:29.203Z,2.23
2023-04-22T10:56:05.144Z,1.90
2023-04-22T10:58:41.866Z,1.27
2023-04-22T11:01:20.940Z,2.00
2023-04-22T11:03:54.731Z,0.97
2023-04-22T11:06:30.547Z,1.93
2023-04-22T11:09:17.356Z,1.40
2023-04-22T11:11:50.561Z,1.57
2023-04-22T11:14:27.684Z,5.60
2023-04-22T11:16:58.066Z,2.40
2023-04-22T11:19:32.112Z,1.70
2023-04-22T11:22:08.438Z,2.30
2023-04-22T11:24:43.789Z,2.37
2023-04-22T11:30:20.461Z,4.80
2023-04-22T11:32:51.920Z,1.03
2023-04-22T11:35:22.613Z,1.00
2023-04-22T11:37:54.211Z,1.73
2023-04-22T11:40:32.821Z,10.53
2023-04-22T11:43:05.185Z,2.53
2023-04-22T11:45:37.217Z,6.13
2023-04-22T11:48:08.005Z,1.77
2023-04-22T11:50:53.338Z,4.03
2023-04-22T11:53:24.588Z,5.93
2023-04-22T11:56:00.610Z,2.50
2023-04-22T11:58:32.824Z,2.03
2023-04-22T12:01:07.637Z,1.17
2023-04-22T12:03:49.162Z,1.97
2023-04-22T12:06:27.062Z,2.23
2023-04-22T12:09:05.947Z,1.40
2023-04-22T12:11:50.162Z,1.40
2023-04-22T12:14:23.985Z,3.07
2023-04-22T12:17:04.147Z,1.97
2023-04-22T12:19:36.688Z,1.77
2023-04-22T12:22:12.648Z,3.50
2023-04-22T12:24:49.635Z,1.53
2023-04-22T12:27:25.699Z,1.67
2023-04-22T12:30:02.678Z,1.57
2023-04-22T12:32:33.115Z,1.47
2023-04-22T12:35:06.114Z,1.40
2023-04-22T12:37:41.860Z,2.30
2023-04-22T12:40:22.298Z,1.90
2023-04-22T12:43:12.041Z,1.87
2023-04-22T12:45:51.056Z,2.00
2023-04-22T12:48:28.503Z,2.63
2023-04-22T12:51:02.229Z,3.13
2023-04-22T12:53:33.556Z,1.47
2023-04-22T12:56:02.979Z,1.23
2023-04-22T12:58:39.947Z,1.97
2023-04-22T13:01:14.465Z,2.07
2023-04-22T13:03:44.748Z,0.90
2023-04-22T13:06:15.479Z,3.00
2023-04-22T13:08:57.260Z,3.03
2023-04-22T13:11:27.381Z,6.63
2023-04-22T13:14:00.610Z,2.60
2023-04-22T13:16:36.216Z,2.00
2023-04-22T13:19:14.633Z,1.80
2023-04-22T13:21:55.350Z,1.63
2023-04-22T13:24:27.616Z,5.40
2023-04-22T13:27:02.758Z,2.60
2023-04-22T13:29:34.181Z,1.70
2023-04-22T13:34:50.547Z,1.93
2023-04-22T13:40:12.539Z,28.17
2023-04-22T13:43:00.195Z,4.27
2023-04-22T13:45:35.109Z,5.63
2023-04-22T13:48:04.968Z,2.27
2023-04-22T13:50:36.020Z,4.30
2023-04-22T13:53:05.355Z,8.80
2023-04-22T13:55:36.770Z,1.90
2023-04-22T13:58:09.976Z,2.23
2023-04-22T14:00:44.949Z,1.73
2023-04-22T14:03:15.004Z,2.60
2023-04-22T14:05:44.287Z,1.73
2023-04-22T14:08:13.795Z,3.20
2023-04-22T14:10:43.203Z,2.20
2023-04-22T14:13:12.208Z,3.73
2023-04-22T14:15:43.458Z,2.90
2023-04-22T14:18:18.892Z,2.50
2023-04-22T14:20:48.241Z,1.83
2023-04-22T14:23:20.924Z,3.40
2023-04-22T14:25:50.875Z,1.27
2023-04-22T14:28:26.890Z,2.50
2023-04-22T14:30:58.505Z,1.17
2023-04-22T14:33:28.171Z,1.27
2023-04-22T14:36:00.563Z,1.73
2023-04-22T14:38:30.157Z,2.10
2023-04-22T14:41:01.276Z,1.13
2023-04-22T14:43:35.107Z,1.80
2023-04-22T14:46:10.863Z,1.07
2023-04-22T14:48:45.658Z,1.20
2023-04-22T14:51:16.190Z,1.60
2023-04-22T14:53:47.483Z,2.30
2023-04-22T14:56:17.122Z,2.40
2023-04-22T14:58:46.076Z,2.00
2023-04-22T15:01:16.705Z,2.03
2023-04-22T15:04:02.895Z,4.10
2023-04-22T15:06:33.239Z,3.20
2023-04-22T15:09:05.169Z,3.33
2023-04-22T15:11:34.797Z,2.27
2023-04-22T15:14:04.026Z,5.93
2023-04-22T15:16:34.555Z,2.00
2023-04-22T15:19:03.712Z,1.60
2023-04-22T15:21:33.547Z,1.40
2023-04-22T15:24:02.586Z,1.93
2023-04-22T15:26:33.111Z,9.60
2023-04-22T15:29:02.753Z,12.00
2023-04-22T15:31:31.840Z,1.60
2023-04-22T15:34:02.472Z,1.70
2023-04-22T15:36:31.957Z,3.73
2023-04-22T15:39:03.922Z,3.73
2023-04-22T15:41:34.018Z,2.57
2023-04-22T15:44:03.518Z,1.50
2023-04-22T15:46:39.522Z,1.93
2023-04-22T15:49:11.738Z,2.53
2023-04-22T15:51:43.565Z,5.70
2023-04-22T15:54:13.035Z,3.60
2023-04-22T15:56:45.334Z,2.13
2023-04-22T15:59:15.024Z,5.20
2023-04-22T16:01:46.283Z,1.53
2023-04-22T16:04:17.924Z,2.90
2023-04-22T16:06:49.080Z,2.20
2023-04-22T17:33:41.858Z,1.70
2023-04-22T17:36:17.717Z,2.70
2023-04-22T17:38:49.319Z,1.97
2023-04-22T17:41:25.223Z,3.00
2023-04-22T17:43:59.265Z,2.50
2023-04-22T17:46:29.208Z,1.87
2023-04-22T17:49:03.506Z,3.70
2023-04-22T17:51:40.442Z,4.33
2023-04-22T17:54:11.638Z,2.87
2023-04-22T17:56:48.599Z,4.13
2023-04-22T17:59:37.816Z,3.17
2023-04-22T18:02:26.360Z,1.97
2023-04-22T18:05:12.787Z,1.97
2023-04-22T18:07:48.892Z,1.30
2023-04-22T18:10:28.971Z,2.00
2023-04-22T18:13:13.720Z,2.20
2023-04-22T18:16:13.246Z,1.87
2023-04-22T18:18:54.210Z,1.67
2023-04-22T18:22:00.455Z,2.87
2023-04-22T18:24:48.003Z,5.13
2023-04-22T18:27:54.319Z,3.83
2023-04-22T18:30:41.641Z,3.37
2023-04-22T18:39:39.573Z,1.87
2023-04-22T18:42:14.042Z,1.80
2023-04-22T18:45:01.325Z,1.70
2023-04-22T18:47:59.660Z,6.53
2023-04-22T18:50:46.392Z,4.90
2023-04-22T18:53:30.822Z,4.60
2023-04-22T18:56:34.404Z,1.73
2023-04-22T18:59:10.388Z,5.30
2023-04-22T19:11:44.237Z,1.73
2023-04-22T19:14:57.188Z,1.27
2023-04-22T19:17:47.188Z,1.70
2023-04-22T19:20:32.887Z,2.93
2023-04-22T19:23:22.161Z,2.03
2023-04-22T19:26:01.506Z,4.40
2023-04-22T19:42:19.908Z,5.03
2023-04-22T19:45:07.161Z,4.33
2023-04-22T19:47:58.362Z,9.03
2023-04-22T19:50:45.974Z,4.10
2023-04-22T19:56:32.193Z,5.67
2023-04-22T19:59:04.746Z,6.93
2023-04-22T20:01:39.899Z,5.20
2023-04-22T20:04:11.271Z,8.63
2023-04-22T20:07:02.702Z,9.03
2023-04-22T20:09:37.778Z,7.30
2023-04-22T20:12:12.789Z,4.33
2023-04-22T20:15:00.096Z,3.83
2023-04-22T20:17:35.643Z,9.73
2023-04-22T20:20:13.983Z,6.47
2023-04-22T20:22:57.394Z,7.67
2023-04-22T20:25:39.727Z,9.40
2023-04-22T20:28:23.589Z,9.90
2023-04-22T20:31:11.240Z,7.17
2023-04-22T20:33:55.210Z,6.73
2023-04-22T20:36:29.311Z,10.53
2023-04-22T20:39:20.641Z,17.37
2023-04-22T20:45:11.301Z,15.37
2023-04-22T20:48:06.605Z,14.50
2023-04-22T20:50:59.940Z,14.00
2023-04-22T20:53:30.605Z,12.97
2023-04-22T20:56:18.546Z,16.47
2023-04-22T20:58:50.331Z,11.97
2023-04-22T21:01:37.960Z,10.20
2023-04-22T21:07:39.295Z,7.20
2023-04-22T21:10:26.917Z,9.10
2023-04-22T21:13:11.080Z,14.10
2023-04-22T21:28:30.108Z,15.93
2023-04-22T21:40:43.600Z,17.10
2023-04-22T21:43:58.151Z,14.50
2023-04-22T21:46:47.403Z,15.50
2023-04-22T21:49:31.153Z,17.97
2023-04-22T21:55:17.946Z,17.30
2023-04-22T22:04:04.455Z,18.47
2023-04-22T22:06:38.908Z,12.50
2023-04-22T22:09:29.843Z,16.27
2023-04-22T22:15:24.460Z,16.47
2023-04-22T22:18:17.594Z,17.00
2023-04-22T22:20:51.323Z,18.43
2023-04-22T22:23:21.853Z,32.23
2023-04-22T22:26:09.837Z,26.90
2023-04-22T22:28:50.162Z,18.33
2023-04-22T22:34:38.747Z,18.73
2023-04-22T22:41:28.997Z,29.80
2023-04-22T22:47:36.257Z,24.50
2023-04-22T22:57:18.218Z,31.30
2023-04-22T23:03:19.376Z,27.80
2023-04-22T23:05:53.482Z,18.70
